Gunlock, KY (41632)

2:16 PM EST on February 28, 2015 (GMT -0500)
Middle Creek | Change Station
CLOSE
Current Station
Personal Weather Station
Location: Prestonsburg, KY
Elevation: 686 ft
Nearby Weather Stations

Elev 686 ft 37.65 °N, 82.88 °W | Updated 28 seconds ago

Mostly Cloudy
Mostly Cloudy
41.4 °F
Feels Like 41 °F
N
0.0
Wind Variable Wind from South
Gusts 0.0 mph

Today
High -- | Low -- °F
--% Chance of Precip.
Yesterday
High -- | Low -- °F
Precip. -- in
7:04 AM 6:24 PM
Waxing Gibbous, 79% visible
Pressure 30.59 in
Visibility 10.0 miles
Clouds Clear
Windchill 41 °F
Dew Point 21 °F
Humidity 44%
Rainfall 0.00 in
Snow Depth Not available.
UV 6 out of 12
Pollen .60 out of 12
Air Quality Not available.
Flu Activity Not available.
METAR KJKL 281853Z AUTO 00000KT 10SM CLR 03/M11 A3055 RMK AO2 SLP359 T00281111

More Conditions Fewer Conditions

Pressure 30.59 in
Visibility 10.0 miles
Clouds Clear
Windchill 41 °F
Dew Point 21 °F
Humidity 44%
Rainfall 0.00 in
Snow Depth Not available.
UV 6 out of 12
Pollen .60 out of 12
Air Quality Not available.
Flu Activity Not available.
METAR KJKL 281853Z AUTO 00000KT 10SM CLR 03/M11 A3055 RMK AO2 SLP359 T00281111

More Conditions Fewer Conditions

10-Day Weather Forecast

Almanac

Astronomy

Feb. 28, 2015 Rise Set
Actual Time
Civil Twilight
Nautical Twilight
Astronomical Twilight
Moon
Length of Visible Light
Length of Day
Tomorrow will be .
, % of the Moon is Illuminated

Today's Extremes

State Highs State Lows

Community

WunderPhotos

Upload Photos

1,801,120 photos uploaded!

WunderBlogs® & News

Nearby

Air Quality

  Air Quality AQ Index Pollutant
Not available.

Snow Depth

Station Depth Elevation

Earthquake Activity

City Distance Mag. Time & Date
Minimum magnitude displayed is 2.5.

Coastal Water Temperatures

Place Temperature

Nearby Weather Stations